sensor_id;sensor_type;location;lat;lon;timestamp;temperature;humidity
17992;DHT22;9121;50.926;5.340;2023-12-14T00:00:52;9.80;88.60
17992;DHT22;9121;50.926;5.340;2023-12-14T00:03:19;9.80;96.30
17992;DHT22;9121;50.926;5.340;2023-12-14T00:05:46;9.90;97.40
17992;DHT22;9121;50.926;5.340;2023-12-14T00:08:14;9.80;93.10
17992;DHT22;9121;50.926;5.340;2023-12-14T00:10:41;9.90;99.90
17992;DHT22;9121;50.926;5.340;2023-12-14T00:13:08;9.90;99.90
17992;DHT22;9121;50.926;5.340;2023-12-14T00:15:35;9.80;99.90
17992;DHT22;9121;50.926;5.340;2023-12-14T00:18:02;9.90;99.90
17992;DHT22;9121;50.926;5.340;2023-12-14T00:20:29;9.90;99.90
17992;DHT22;9121;50.926;5.340;2023-12-14T00:22:56;9.90;99.90
17992;DHT22;9121;50.926;5.340;2023-12-14T00:25:24;9.90;99.90
17992;DHT22;9121;50.926;5.340;2023-12-14T00:27:51;10.00;99.90
17992;DHT22;9121;50.926;5.340;2023-12-14T00:30:18;10.00;99.90
17992;DHT22;9121;50.926;5.340;2023-12-14T00:32:45;9.90;99.20
17992;DHT22;9121;50.926;5.340;2023-12-14T00:35:12;9.90;96.80
17992;DHT22;9121;50.926;5.340;2023-12-14T00:37:39;9.90;97.70
17992;DHT22;9121;50.926;5.340;2023-12-14T00:40:07;10.00;97.70
17992;DHT22;9121;50.926;5.340;2023-12-14T00:42:35;9.90;96.40
17992;DHT22;9121;50.926;5.340;2023-12-14T00:45:02;10.00;99.90
17992;DHT22;9121;50.926;5.340;2023-12-14T00:47:29;10.00;97.70
17992;DHT22;9121;50.926;5.340;2023-12-14T00:49:56;9.90;99.50
17992;DHT22;9121;50.926;5.340;2023-12-14T00:52:23;10.00;99.90
17992;DHT22;9121;50.926;5.340;2023-12-14T00:54:50;10.00;99.90
17992;DHT22;9121;50.926;5.340;2023-12-14T00:57:17;10.10;99.60
17992;DHT22;9121;50.926;5.340;2023-12-14T00:59:45;10.10;99.60
17992;DHT22;9121;50.926;5.340;2023-12-14T01:02:12;10.00;95.90
17992;DHT22;9121;50.926;5.340;2023-12-14T01:04:39;10.10;98.50
17992;DHT22;9121;50.926;5.340;2023-12-14T01:07:07;10.00;93.90
17992;DHT22;9121;50.926;5.340;2023-12-14T01:09:34;10.00;96.70
17992;DHT22;9121;50.926;5.340;2023-12-14T01:12:02;10.00;99.30
17992;DHT22;9121;50.926;5.340;2023-12-14T01:14:29;10.00;97.50
17992;DHT22;9121;50.926;5.340;2023-12-14T01:16:57;9.90;95.10
17992;DHT22;9121;50.926;5.340;2023-12-14T01:19:24;9.90;96.80
17992;DHT22;9121;50.926;5.340;2023-12-14T01:21:51;9.90;96.10
17992;DHT22;9121;50.926;5.340;2023-12-14T01:24:18;9.80;98.40
17992;DHT22;9121;50.926;5.340;2023-12-14T01:26:45;9.90;99.50
17992;DHT22;9121;50.926;5.340;2023-12-14T01:29:12;9.90;97.00
17992;DHT22;9121;50.926;5.340;2023-12-14T01:31:39;9.90;98.00
17992;DHT22;9121;50.926;5.340;2023-12-14T01:34:07;9.90;99.50
17992;DHT22;9121;50.926;5.340;2023-12-14T01:36:36;9.80;94.90
17992;DHT22;9121;50.926;5.340;2023-12-14T01:39:02;9.80;98.20
17992;DHT22;9121;50.926;5.340;2023-12-14T01:41:31;9.90;99.40
17992;DHT22;9121;50.926;5.340;2023-12-14T01:43:58;9.80;96.50
17992;DHT22;9121;50.926;5.340;2023-12-14T01:46:25;9.80;98.50
17992;DHT22;9121;50.926;5.340;2023-12-14T01:48:52;9.80;99.90
17992;DHT22;9121;50.926;5.340;2023-12-14T01:51:20;9.80;99.90
17992;DHT22;9121;50.926;5.340;2023-12-14T01:53:47;9.90;99.90
17992;DHT22;9121;50.926;5.340;2023-12-14T01:56:14;9.90;99.90
17992;DHT22;9121;50.926;5.340;2023-12-14T01:58:40;9.90;99.90
17992;DHT22;9121;50.926;5.340;2023-12-14T02:01:21;10.00;99.90
17992;DHT22;9121;50.926;5.340;2023-12-14T02:03:51;9.90;99.50
17992;DHT22;9121;50.926;5.340;2023-12-14T02:06:21;9.90;99.80
17992;DHT22;9121;50.926;5.340;2023-12-14T02:08:48;10.00;99.60
17992;DHT22;9121;50.926;5.340;2023-12-14T02:11:15;9.90;99.90
17992;DHT22;9121;50.926;5.340;2023-12-14T02:13:41;9.90;99.90
17992;DHT22;9121;50.926;5.340;2023-12-14T02:16:08;9.80;98.20
17992;DHT22;9121;50.926;5.340;2023-12-14T02:18:35;9.70;99.40
17992;DHT22;9121;50.926;5.340;2023-12-14T02:21:03;9.70;99.80
17992;DHT22;9121;50.926;5.340;2023-12-14T02:23:31;9.70;99.90
17992;DHT22;9121;50.926;5.340;2023-12-14T02:25:57;9.50;99.90
17992;DHT22;9121;50.926;5.340;2023-12-14T02:28:24;9.40;99.90
17992;DHT22;9121;50.926;5.340;2023-12-14T02:30:51;9.30;99.90
17992;DHT22;9121;50.926;5.340;2023-12-14T02:33:18;9.30;99.90
17992;DHT22;9121;50.926;5.340;2023-12-14T02:35:45;9.30;99.90
17992;DHT22;9121;50.926;5.340;2023-12-14T02:38:12;9.20;99.90
17992;DHT22;9121;50.926;5.340;2023-12-14T02:40:40;9.20;99.90
17992;DHT22;9121;50.926;5.340;2023-12-14T02:43:07;9.10;99.90
17992;DHT22;9121;50.926;5.340;2023-12-14T02:45:34;9.20;99.90
17992;DHT22;9121;50.926;5.340;2023-12-14T02:48:00;9.00;99.90
17992;DHT22;9121;50.926;5.340;2023-12-14T02:50:27;9.00;99.90
17992;DHT22;9121;50.926;5.340;2023-12-14T02:52:54;8.90;99.90
17992;DHT22;9121;50.926;5.340;2023-12-14T02:55:21;8.80;99.90
17992;DHT22;9121;50.926;5.340;2023-12-14T02:57:49;8.80;99.90
17992;DHT22;9121;50.926;5.340;2023-12-14T03:00:17;8.80;99.90
17992;DHT22;9121;50.926;5.340;2023-12-14T03:02:44;8.80;99.90
17992;DHT22;9121;50.926;5.340;2023-12-14T03:05:11;8.80;99.90
17992;DHT22;9121;50.926;5.340;2023-12-14T03:07:38;8.80;99.90
17992;DHT22;9121;50.926;5.340;2023-12-14T03:10:06;8.80;99.90
17992;DHT22;9121;50.926;5.340;2023-12-14T03:12:33;8.70;99.90
17992;DHT22;9121;50.926;5.340;2023-12-14T03:15:01;8.70;99.90
17992;DHT22;9121;50.926;5.340;2023-12-14T03:17:28;8.70;99.90
17992;DHT22;9121;50.926;5.340;2023-12-14T03:19:55;8.90;99.90
17992;DHT22;9121;50.926;5.340;2023-12-14T03:22:22;9.00;99.90
17992;DHT22;9121;50.926;5.340;2023-12-14T03:24:49;9.00;99.90
17992;DHT22;9121;50.926;5.340;2023-12-14T03:27:16;8.90;99.90
17992;DHT22;9121;50.926;5.340;2023-12-14T03:29:43;8.80;99.90
17992;DHT22;9121;50.926;5.340;2023-12-14T03:32:11;8.80;99.90
17992;DHT22;9121;50.926;5.340;2023-12-14T03:34:38;8.80;99.90
17992;DHT22;9121;50.926;5.340;2023-12-14T03:37:05;8.80;99.90
17992;DHT22;9121;50.926;5.340;2023-12-14T03:39:32;8.80;99.90
17992;DHT22;9121;50.926;5.340;2023-12-14T03:41:59;8.90;98.30
17992;DHT22;9121;50.926;5.340;2023-12-14T03:44:26;8.90;92.60
17992;DHT22;9121;50.926;5.340;2023-12-14T03:46:53;8.90;84.30
17992;DHT22;9121;50.926;5.340;2023-12-14T03:49:21;8.90;82.30
17992;DHT22;9121;50.926;5.340;2023-12-14T03:51:47;8.90;71.50
17992;DHT22;9121;50.926;5.340;2023-12-14T03:54:14;8.90;62.20
17992;DHT22;9121;50.926;5.340;2023-12-14T03:56:41;8.80;55.00
17992;DHT22;9121;50.926;5.340;2023-12-14T03:59:08;8.70;51.20
17992;DHT22;9121;50.926;5.340;2023-12-14T04:01:34;8.70;49.40
17992;DHT22;9121;50.926;5.340;2023-12-14T04:04:04;8.50;53.20
17992;DHT22;9121;50.926;5.340;2023-12-14T04:06:32;8.50;67.10
17992;DHT22;9121;50.926;5.340;2023-12-14T04:09:02;8.50;65.60
17992;DHT22;9121;50.926;5.340;2023-12-14T04:11:29;8.40;64.50
17992;DHT22;9121;50.926;5.340;2023-12-14T04:13:56;8.40;66.30
17992;DHT22;9121;50.926;5.340;2023-12-14T04:16:22;8.30;73.80
17992;DHT22;9121;50.926;5.340;2023-12-14T04:18:49;8.30;79.50
17992;DHT22;9121;50.926;5.340;2023-12-14T04:21:16;8.40;80.00
17992;DHT22;9121;50.926;5.340;2023-12-14T04:23:45;8.40;72.60
17992;DHT22;9121;50.926;5.340;2023-12-14T04:26:12;8.40;71.90
17992;DHT22;9121;50.926;5.340;2023-12-14T04:28:39;8.50;68.00
17992;DHT22;9121;50.926;5.340;2023-12-14T04:31:09;8.50;50.50
17992;DHT22;9121;50.926;5.340;2023-12-14T04:33:36;8.30;37.80
17992;DHT22;9121;50.926;5.340;2023-12-14T04:36:04;8.20;31.60
17992;DHT22;9121;50.926;5.340;2023-12-14T04:38:31;8.10;36.70
17992;DHT22;9121;50.926;5.340;2023-12-14T04:40:59;8.10;35.20
17992;DHT22;9121;50.926;5.340;2023-12-14T04:43:26;8.10;37.40
17992;DHT22;9121;50.926;5.340;2023-12-14T04:45:55;8.10;36.00
17992;DHT22;9121;50.926;5.340;2023-12-14T04:48:22;8.10;33.70
17992;DHT22;9121;50.926;5.340;2023-12-14T04:50:48;8.10;28.00
17992;DHT22;9121;50.926;5.340;2023-12-14T04:53:15;8.10;24.50
17992;DHT22;9121;50.926;5.340;2023-12-14T04:55:42;8.10;23.30
17992;DHT22;9121;50.926;5.340;2023-12-14T04:58:11;8.00;12.10
17992;DHT22;9121;50.926;5.340;2023-12-14T05:00:38;8.10;24.80
17992;DHT22;9121;50.926;5.340;2023-12-14T05:03:05;8.10;6.50
17992;DHT22;9121;50.926;5.340;2023-12-14T05:05:32;8.10;3.30
17992;DHT22;9121;50.926;5.340;2023-12-14T05:07:58;8.10;1.00
17992;DHT22;9121;50.926;5.340;2023-12-14T05:10:26;8.10;1.00
17992;DHT22;9121;50.926;5.340;2023-12-14T05:12:53;8.20;1.00
17992;DHT22;9121;50.926;5.340;2023-12-14T05:15:21;8.20;1.00
17992;DHT22;9121;50.926;5.340;2023-12-14T05:17:48;8.30;1.00
17992;DHT22;9121;50.926;5.340;2023-12-14T05:20:15;8.30;1.00
17992;DHT22;9121;50.926;5.340;2023-12-14T05:22:42;8.20;1.00
17992;DHT22;9121;50.926;5.340;2023-12-14T05:25:09;8.20;1.00
17992;DHT22;9121;50.926;5.340;2023-12-14T05:27:36;8.20;1.00
17992;DHT22;9121;50.926;5.340;2023-12-14T05:30:03;8.10;1.00
17992;DHT22;9121;50.926;5.340;2023-12-14T05:32:32;8.10;1.00
17992;DHT22;9121;50.926;5.340;2023-12-14T05:34:59;8.10;1.00
17992;DHT22;9121;50.926;5.340;2023-12-14T05:37:26;8.10;1.00
17992;DHT22;9121;50.926;5.340;2023-12-14T05:39:53;8.00;1.00
17992;DHT22;9121;50.926;5.340;2023-12-14T05:42:20;7.90;1.00
17992;DHT22;9121;50.926;5.340;2023-12-14T05:44:47;8.00;1.00
17992;DHT22;9121;50.926;5.340;2023-12-14T05:47:14;8.10;1.00
17992;DHT22;9121;50.926;5.340;2023-12-14T05:49:43;8.10;1.00
17992;DHT22;9121;50.926;5.340;2023-12-14T05:52:10;8.00;1.00
17992;DHT22;9121;50.926;5.340;2023-12-14T05:54:37;8.00;1.00
17992;DHT22;9121;50.926;5.340;2023-12-14T05:57:05;8.10;1.00
17992;DHT22;9121;50.926;5.340;2023-12-14T05:59:32;8.00;1.00
17992;DHT22;9121;50.926;5.340;2023-12-14T06:02:00;8.00;1.00
17992;DHT22;9121;50.926;5.340;2023-12-14T06:04:27;8.00;1.00
17992;DHT22;9121;50.926;5.340;2023-12-14T06:06:56;7.90;1.00
17992;DHT22;9121;50.926;5.340;2023-12-14T06:09:23;7.90;1.00
17992;DHT22;9121;50.926;5.340;2023-12-14T06:11:55;7.80;1.00
17992;DHT22;9121;50.926;5.340;2023-12-14T06:14:22;7.70;1.00
17992;DHT22;9121;50.926;5.340;2023-12-14T06:16:48;7.70;1.00
17992;DHT22;9121;50.926;5.340;2023-12-14T06:19:15;7.70;1.00
17992;DHT22;9121;50.926;5.340;2023-12-14T06:21:42;7.60;1.00
17992;DHT22;9121;50.926;5.340;2023-12-14T06:24:11;7.60;1.00
17992;DHT22;9121;50.926;5.340;2023-12-14T06:26:40;7.70;1.00
17992;DHT22;9121;50.926;5.340;2023-12-14T06:29:08;7.80;1.00
17992;DHT22;9121;50.926;5.340;2023-12-14T06:31:35;7.70;1.00
17992;DHT22;9121;50.926;5.340;2023-12-14T06:34:02;7.80;1.00
17992;DHT22;9121;50.926;5.340;2023-12-14T06:36:30;7.70;1.00
17992;DHT22;9121;50.926;5.340;2023-12-14T06:38:57;7.80;1.00
17992;DHT22;9121;50.926;5.340;2023-12-14T06:41:26;7.80;1.00
17992;DHT22;9121;50.926;5.340;2023-12-14T06:43:53;7.80;1.00
17992;DHT22;9121;50.926;5.340;2023-12-14T06:46:21;7.90;1.00
17992;DHT22;9121;50.926;5.340;2023-12-14T06:48:49;7.90;1.00
17992;DHT22;9121;50.926;5.340;2023-12-14T06:51:16;7.90;1.00
17992;DHT22;9121;50.926;5.340;2023-12-14T06:53:44;7.80;1.00
17992;DHT22;9121;50.926;5.340;2023-12-14T06:56:11;7.80;1.00
17992;DHT22;9121;50.926;5.340;2023-12-14T06:58:40;7.80;1.00
17992;DHT22;9121;50.926;5.340;2023-12-14T07:01:08;7.80;1.00
17992;DHT22;9121;50.926;5.340;2023-12-14T07:03:35;7.80;1.00
17992;DHT22;9121;50.926;5.340;2023-12-14T07:06:02;7.70;1.00
17992;DHT22;9121;50.926;5.340;2023-12-14T07:08:29;7.70;1.00
17992;DHT22;9121;50.926;5.340;2023-12-14T07:10:56;7.70;1.00
17992;DHT22;9121;50.926;5.340;2023-12-14T07:13:23;7.70;1.00
17992;DHT22;9121;50.926;5.340;2023-12-14T07:15:51;7.70;1.00
17992;DHT22;9121;50.926;5.340;2023-12-14T07:18:18;7.70;1.00
17992;DHT22;9121;50.926;5.340;2023-12-14T07:20:45;7.80;1.00
17992;DHT22;9121;50.926;5.340;2023-12-14T07:23:12;7.70;1.00
17992;DHT22;9121;50.926;5.340;2023-12-14T07:25:39;7.70;1.00
17992;DHT22;9121;50.926;5.340;2023-12-14T07:28:06;7.70;1.00
17992;DHT22;9121;50.926;5.340;2023-12-14T07:30:33;7.80;1.00
17992;DHT22;9121;50.926;5.340;2023-12-14T07:33:01;7.70;1.00
17992;DHT22;9121;50.926;5.340;2023-12-14T07:35:28;7.70;1.00
17992;DHT22;9121;50.926;5.340;2023-12-14T07:37:55;7.80;1.00
17992;DHT22;9121;50.926;5.340;2023-12-14T07:40:22;7.80;1.00
17992;DHT22;9121;50.926;5.340;2023-12-14T07:42:48;7.90;1.00
17992;DHT22;9121;50.926;5.340;2023-12-14T07:45:16;7.80;1.00
17992;DHT22;9121;50.926;5.340;2023-12-14T07:47:42;7.90;1.00
17992;DHT22;9121;50.926;5.340;2023-12-14T07:50:12;7.80;1.00
17992;DHT22;9121;50.926;5.340;2023-12-14T07:52:39;7.80;1.00
17992;DHT22;9121;50.926;5.340;2023-12-14T07:55:07;7.90;1.00
17992;DHT22;9121;50.926;5.340;2023-12-14T07:57:34;7.90;1.00
17992;DHT22;9121;50.926;5.340;2023-12-14T08:00:01;7.90;1.00
17992;DHT22;9121;50.926;5.340;2023-12-14T08:02:29;7.80;1.00
17992;DHT22;9121;50.926;5.340;2023-12-14T08:04:56;7.80;1.00
17992;DHT22;9121;50.926;5.340;2023-12-14T08:07:24;7.90;1.00
17992;DHT22;9121;50.926;5.340;2023-12-14T08:09:54;7.90;1.00
17992;DHT22;9121;50.926;5.340;2023-12-14T08:12:21;7.90;1.00
17992;DHT22;9121;50.926;5.340;2023-12-14T08:14:49;7.80;1.00
17992;DHT22;9121;50.926;5.340;2023-12-14T08:17:15;7.80;1.00
17992;DHT22;9121;50.926;5.340;2023-12-14T08:19:43;7.70;1.00
17992;DHT22;9121;50.926;5.340;2023-12-14T08:22:10;7.70;1.00
17992;DHT22;9121;50.926;5.340;2023-12-14T08:24:39;7.80;1.00
17992;DHT22;9121;50.926;5.340;2023-12-14T08:27:06;7.60;1.00
17992;DHT22;9121;50.926;5.340;2023-12-14T08:29:33;7.60;1.00
17992;DHT22;9121;50.926;5.340;2023-12-14T08:32:00;7.50;1.00
17992;DHT22;9121;50.926;5.340;2023-12-14T08:34:27;7.50;1.00
17992;DHT22;9121;50.926;5.340;2023-12-14T08:36:54;7.50;1.00
17992;DHT22;9121;50.926;5.340;2023-12-14T08:39:22;7.50;7.70
17992;DHT22;9121;50.926;5.340;2023-12-14T08:41:50;7.60;6.30
17992;DHT22;9121;50.926;5.340;2023-12-14T08:44:17;7.50;1.00
17992;DHT22;9121;50.926;5.340;2023-12-14T08:46:45;7.50;1.00
17992;DHT22;9121;50.926;5.340;2023-12-14T08:49:13;7.50;1.00
17992;DHT22;9121;50.926;5.340;2023-12-14T08:51:41;7.60;1.00
17992;DHT22;9121;50.926;5.340;2023-12-14T08:54:08;7.60;1.00
17992;DHT22;9121;50.926;5.340;2023-12-14T08:56:35;7.60;1.00
17992;DHT22;9121;50.926;5.340;2023-12-14T08:59:03;7.60;1.00
17992;DHT22;9121;50.926;5.340;2023-12-14T09:01:31;7.70;1.00
17992;DHT22;9121;50.926;5.340;2023-12-14T09:03:58;7.60;1.00
17992;DHT22;9121;50.926;5.340;2023-12-14T09:06:25;7.60;1.00
17992;DHT22;9121;50.926;5.340;2023-12-14T09:08:51;7.60;1.00
17992;DHT22;9121;50.926;5.340;2023-12-14T09:11:18;7.70;1.00
17992;DHT22;9121;50.926;5.340;2023-12-14T09:13:45;7.70;1.00
17992;DHT22;9121;50.926;5.340;2023-12-14T09:16:14;7.70;1.00
17992;DHT22;9121;50.926;5.340;2023-12-14T09:18:41;7.70;1.00
17992;DHT22;9121;50.926;5.340;2023-12-14T09:21:08;7.70;1.00
17992;DHT22;9121;50.926;5.340;2023-12-14T09:23:34;7.70;1.00
17992;DHT22;9121;50.926;5.340;2023-12-14T09:26:01;7.70;1.00
17992;DHT22;9121;50.926;5.340;2023-12-14T09:28:29;7.80;1.00
17992;DHT22;9121;50.926;5.340;2023-12-14T09:30:56;7.90;1.00
17992;DHT22;9121;50.926;5.340;2023-12-14T09:33:24;7.90;1.00
17992;DHT22;9121;50.926;5.340;2023-12-14T09:35:51;7.90;1.00
17992;DHT22;9121;50.926;5.340;2023-12-14T09:38:18;8.10;1.00
17992;DHT22;9121;50.926;5.340;2023-12-14T09:40:45;8.10;1.00
17992;DHT22;9121;50.926;5.340;2023-12-14T09:43:12;8.20;1.00
17992;DHT22;9121;50.926;5.340;2023-12-14T09:45:41;8.10;1.00
17992;DHT22;9121;50.926;5.340;2023-12-14T09:48:11;8.10;1.00
17992;DHT22;9121;50.926;5.340;2023-12-14T09:50:40;8.10;1.00
17992;DHT22;9121;50.926;5.340;2023-12-14T09:53:08;8.10;1.00
17992;DHT22;9121;50.926;5.340;2023-12-14T09:55:35;8.00;1.00
17992;DHT22;9121;50.926;5.340;2023-12-14T09:58:02;8.00;1.00
17992;DHT22;9121;50.926;5.340;2023-12-14T10:00:36;8.10;1.00
17992;DHT22;9121;50.926;5.340;2023-12-14T10:03:20;8.00;1.00
17992;DHT22;9121;50.926;5.340;2023-12-14T10:05:49;7.80;1.00
17992;DHT22;9121;50.926;5.340;2023-12-14T10:08:17;7.90;1.00
17992;DHT22;9121;50.926;5.340;2023-12-14T10:10:44;7.90;1.00
17992;DHT22;9121;50.926;5.340;2023-12-14T10:13:11;7.90;1.00
17992;DHT22;9121;50.926;5.340;2023-12-14T10:15:41;7.80;1.00
17992;DHT22;9121;50.926;5.340;2023-12-14T10:18:08;7.80;1.00
17992;DHT22;9121;50.926;5.340;2023-12-14T10:20:36;7.80;1.00
17992;DHT22;9121;50.926;5.340;2023-12-14T10:23:06;7.90;1.00
17992;DHT22;9121;50.926;5.340;2023-12-14T10:25:35;7.90;1.00
17992;DHT22;9121;50.926;5.340;2023-12-14T10:28:02;7.90;1.00
17992;DHT22;9121;50.926;5.340;2023-12-14T10:30:29;7.90;1.00
17992;DHT22;9121;50.926;5.340;2023-12-14T10:32:57;8.00;1.00
17992;DHT22;9121;50.926;5.340;2023-12-14T10:35:24;7.90;1.00
17992;DHT22;9121;50.926;5.340;2023-12-14T10:37:52;7.90;1.00
17992;DHT22;9121;50.926;5.340;2023-12-14T10:40:21;7.80;1.00
17992;DHT22;9121;50.926;5.340;2023-12-14T10:42:49;7.90;1.00
17992;DHT22;9121;50.926;5.340;2023-12-14T10:45:18;8.00;1.00
17992;DHT22;9121;50.926;5.340;2023-12-14T10:47:46;8.00;1.00
17992;DHT22;9121;50.926;5.340;2023-12-14T10:50:14;8.20;1.00
17992;DHT22;9121;50.926;5.340;2023-12-14T10:52:41;8.20;1.00
17992;DHT22;9121;50.926;5.340;2023-12-14T10:55:14;8.20;1.00
17992;DHT22;9121;50.926;5.340;2023-12-14T10:57:43;8.30;1.00
17992;DHT22;9121;50.926;5.340;2023-12-14T11:00:12;8.30;1.00
17992;DHT22;9121;50.926;5.340;2023-12-14T11:02:45;8.50;1.00
17992;DHT22;9121;50.926;5.340;2023-12-14T11:05:13;8.70;1.00
17992;DHT22;9121;50.926;5.340;2023-12-14T11:07:49;8.60;99.90
17992;DHT22;9121;50.926;5.340;2023-12-14T11:10:21;8.50;99.90
17992;DHT22;9121;50.926;5.340;2023-12-14T11:12:57;8.60;1.00
17992;DHT22;9121;50.926;5.340;2023-12-14T11:15:28;8.60;99.90
17992;DHT22;9121;50.926;5.340;2023-12-14T11:18:19;8.60;99.90
17992;DHT22;9121;50.926;5.340;2023-12-14T11:20:48;8.60;99.90
17992;DHT22;9121;50.926;5.340;2023-12-14T11:23:17;8.50;99.90
17992;DHT22;9121;50.926;5.340;2023-12-14T11:25:48;8.50;99.90
17992;DHT22;9121;50.926;5.340;2023-12-14T11:28:16;8.50;99.90
17992;DHT22;9121;50.926;5.340;2023-12-14T11:30:44;8.40;99.90
17992;DHT22;9121;50.926;5.340;2023-12-14T11:33:12;8.40;99.90
17992;DHT22;9121;50.926;5.340;2023-12-14T11:35:38;8.30;99.90
17992;DHT22;9121;50.926;5.340;2023-12-14T11:38:05;8.30;99.90
17992;DHT22;9121;50.926;5.340;2023-12-14T11:40:37;8.30;99.90
17992;DHT22;9121;50.926;5.340;2023-12-14T11:43:05;8.40;99.90
17992;DHT22;9121;50.926;5.340;2023-12-14T11:45:35;8.40;99.90
17992;DHT22;9121;50.926;5.340;2023-12-14T11:48:02;8.40;99.90
17992;DHT22;9121;50.926;5.340;2023-12-14T11:50:31;8.30;99.90
17992;DHT22;9121;50.926;5.340;2023-12-14T11:53:00;8.20;99.90
17992;DHT22;9121;50.926;5.340;2023-12-14T11:55:29;8.20;99.90
17992;DHT22;9121;50.926;5.340;2023-12-14T11:57:56;8.20;99.90
17992;DHT22;9121;50.926;5.340;2023-12-14T12:00:24;8.30;1.00
17992;DHT22;9121;50.926;5.340;2023-12-14T12:03:07;8.30;1.00
17992;DHT22;9121;50.926;5.340;2023-12-14T12:05:36;8.40;1.00
17992;DHT22;9121;50.926;5.340;2023-12-14T12:08:03;8.40;1.00
17992;DHT22;9121;50.926;5.340;2023-12-14T12:10:31;8.30;1.00
17992;DHT22;9121;50.926;5.340;2023-12-14T12:13:02;8.10;1.00
17992;DHT22;9121;50.926;5.340;2023-12-14T12:15:31;8.00;1.00
17992;DHT22;9121;50.926;5.340;2023-12-14T12:18:00;8.10;1.00
17992;DHT22;9121;50.926;5.340;2023-12-14T12:20:27;8.10;1.00
17992;DHT22;9121;50.926;5.340;2023-12-14T12:22:54;8.20;1.00
17992;DHT22;9121;50.926;5.340;2023-12-14T12:25:21;8.10;1.00
17992;DHT22;9121;50.926;5.340;2023-12-14T12:27:49;8.20;1.00
17992;DHT22;9121;50.926;5.340;2023-12-14T12:30:16;8.20;1.00
17992;DHT22;9121;50.926;5.340;2023-12-14T12:32:43;8.20;1.00
17992;DHT22;9121;50.926;5.340;2023-12-14T12:35:11;8.30;1.00
17992;DHT22;9121;50.926;5.340;2023-12-14T12:37:39;8.30;1.00
17992;DHT22;9121;50.926;5.340;2023-12-14T12:40:07;8.20;99.90
17992;DHT22;9121;50.926;5.340;2023-12-14T12:42:34;8.30;99.90
17992;DHT22;9121;50.926;5.340;2023-12-14T12:45:01;8.40;99.90
17992;DHT22;9121;50.926;5.340;2023-12-14T12:47:28;8.40;99.90
17992;DHT22;9121;50.926;5.340;2023-12-14T12:49:55;8.30;1.00
17992;DHT22;9121;50.926;5.340;2023-12-14T12:52:23;8.20;1.00
17992;DHT22;9121;50.926;5.340;2023-12-14T12:54:51;8.10;1.00
17992;DHT22;9121;50.926;5.340;2023-12-14T12:57:18;8.10;1.00
17992;DHT22;9121;50.926;5.340;2023-12-14T12:59:44;8.10;1.00
17992;DHT22;9121;50.926;5.340;2023-12-14T13:02:12;8.20;1.00
17992;DHT22;9121;50.926;5.340;2023-12-14T13:04:39;8.20;1.00
17992;DHT22;9121;50.926;5.340;2023-12-14T13:07:06;8.10;1.00
17992;DHT22;9121;50.926;5.340;2023-12-14T13:09:34;8.00;1.00
17992;DHT22;9121;50.926;5.340;2023-12-14T13:12:03;8.10;1.00
17992;DHT22;9121;50.926;5.340;2023-12-14T13:14:30;8.30;1.00
17992;DHT22;9121;50.926;5.340;2023-12-14T13:16:58;8.30;1.00
17992;DHT22;9121;50.926;5.340;2023-12-14T13:19:25;8.40;1.00
17992;DHT22;9121;50.926;5.340;2023-12-14T13:21:54;8.50;1.00
17992;DHT22;9121;50.926;5.340;2023-12-14T13:24:23;8.50;1.00
17992;DHT22;9121;50.926;5.340;2023-12-14T13:26:51;8.40;1.00
17992;DHT22;9121;50.926;5.340;2023-12-14T13:29:18;8.40;1.00
17992;DHT22;9121;50.926;5.340;2023-12-14T13:31:46;8.50;1.00
17992;DHT22;9121;50.926;5.340;2023-12-14T13:34:13;8.40;1.00
17992;DHT22;9121;50.926;5.340;2023-12-14T13:36:40;8.40;1.00
17992;DHT22;9121;50.926;5.340;2023-12-14T13:39:07;8.40;1.00
17992;DHT22;9121;50.926;5.340;2023-12-14T13:41:34;8.30;1.00
17992;DHT22;9121;50.926;5.340;2023-12-14T13:44:02;8.40;1.00
17992;DHT22;9121;50.926;5.340;2023-12-14T13:46:29;8.50;1.00
17992;DHT22;9121;50.926;5.340;2023-12-14T13:48:56;8.30;1.00
17992;DHT22;9121;50.926;5.340;2023-12-14T13:51:23;8.30;1.00
17992;DHT22;9121;50.926;5.340;2023-12-14T13:53:50;8.30;1.00
17992;DHT22;9121;50.926;5.340;2023-12-14T13:56:17;8.40;1.00
17992;DHT22;9121;50.926;5.340;2023-12-14T13:58:44;8.30;1.00
17992;DHT22;9121;50.926;5.340;2023-12-14T14:01:13;8.30;1.00
17992;DHT22;9121;50.926;5.340;2023-12-14T14:03:41;8.30;1.00
17992;DHT22;9121;50.926;5.340;2023-12-14T14:06:08;8.30;1.00
17992;DHT22;9121;50.926;5.340;2023-12-14T14:08:35;8.40;1.00
17992;DHT22;9121;50.926;5.340;2023-12-14T14:11:03;8.40;1.00
17992;DHT22;9121;50.926;5.340;2023-12-14T14:13:31;8.40;1.00
17992;DHT22;9121;50.926;5.340;2023-12-14T14:15:59;8.30;1.00
17992;DHT22;9121;50.926;5.340;2023-12-14T14:18:28;8.40;1.00
17992;DHT22;9121;50.926;5.340;2023-12-14T14:20:55;8.50;1.00
17992;DHT22;9121;50.926;5.340;2023-12-14T14:23:22;8.50;1.00
17992;DHT22;9121;50.926;5.340;2023-12-14T14:25:51;8.50;1.00
17992;DHT22;9121;50.926;5.340;2023-12-14T14:28:20;8.50;1.00
17992;DHT22;9121;50.926;5.340;2023-12-14T14:30:47;8.40;1.00
17992;DHT22;9121;50.926;5.340;2023-12-14T14:33:14;8.50;1.00
17992;DHT22;9121;50.926;5.340;2023-12-14T14:35:45;8.40;1.00
17992;DHT22;9121;50.926;5.340;2023-12-14T14:38:12;8.40;1.00
17992;DHT22;9121;50.926;5.340;2023-12-14T14:40:39;8.30;1.00
17992;DHT22;9121;50.926;5.340;2023-12-14T14:43:07;8.30;1.00
17992;DHT22;9121;50.926;5.340;2023-12-14T14:45:35;8.30;1.00
17992;DHT22;9121;50.926;5.340;2023-12-14T14:48:03;8.30;1.00
17992;DHT22;9121;50.926;5.340;2023-12-14T14:50:33;8.30;1.00
17992;DHT22;9121;50.926;5.340;2023-12-14T14:53:02;8.30;1.00
17992;DHT22;9121;50.926;5.340;2023-12-14T14:55:29;8.40;1.00
17992;DHT22;9121;50.926;5.340;2023-12-14T14:57:56;8.40;1.00
17992;DHT22;9121;50.926;5.340;2023-12-14T15:00:24;8.30;1.00
17992;DHT22;9121;50.926;5.340;2023-12-14T15:02:51;8.30;1.00
17992;DHT22;9121;50.926;5.340;2023-12-14T15:05:18;8.40;1.00
17992;DHT22;9121;50.926;5.340;2023-12-14T15:07:45;8.40;1.00
17992;DHT22;9121;50.926;5.340;2023-12-14T15:10:13;8.40;1.00
17992;DHT22;9121;50.926;5.340;2023-12-14T15:12:40;8.40;1.00
17992;DHT22;9121;50.926;5.340;2023-12-14T15:15:08;8.30;1.00
17992;DHT22;9121;50.926;5.340;2023-12-14T15:17:35;8.30;1.00
17992;DHT22;9121;50.926;5.340;2023-12-14T15:20:03;8.30;1.00
17992;DHT22;9121;50.926;5.340;2023-12-14T15:22:31;8.20;1.00
17992;DHT22;9121;50.926;5.340;2023-12-14T15:24:58;8.30;1.00
17992;DHT22;9121;50.926;5.340;2023-12-14T15:27:26;8.30;1.00
17992;DHT22;9121;50.926;5.340;2023-12-14T15:29:56;8.30;1.00
17992;DHT22;9121;50.926;5.340;2023-12-14T15:32:23;8.40;1.00
17992;DHT22;9121;50.926;5.340;2023-12-14T15:34:50;8.40;1.00
17992;DHT22;9121;50.926;5.340;2023-12-14T15:37:17;8.30;1.00
17992;DHT22;9121;50.926;5.340;2023-12-14T15:39:44;8.30;1.00
17992;DHT22;9121;50.926;5.340;2023-12-14T15:42:14;8.30;1.00
17992;DHT22;9121;50.926;5.340;2023-12-14T15:44:42;8.30;1.00
17992;DHT22;9121;50.926;5.340;2023-12-14T15:47:10;8.30;1.00
17992;DHT22;9121;50.926;5.340;2023-12-14T15:49:37;8.30;1.00
17992;DHT22;9121;50.926;5.340;2023-12-14T15:52:04;8.30;1.00
17992;DHT22;9121;50.926;5.340;2023-12-14T15:54:31;8.30;1.00
17992;DHT22;9121;50.926;5.340;2023-12-14T15:56:58;8.20;1.00
17992;DHT22;9121;50.926;5.340;2023-12-14T15:59:25;8.20;1.00
17992;DHT22;9121;50.926;5.340;2023-12-14T16:01:54;8.20;1.00
17992;DHT22;9121;50.926;5.340;2023-12-14T16:04:21;8.20;1.00
17992;DHT22;9121;50.926;5.340;2023-12-14T16:06:48;8.10;1.00
17992;DHT22;9121;50.926;5.340;2023-12-14T16:09:15;8.10;1.00
17992;DHT22;9121;50.926;5.340;2023-12-14T16:11:43;8.10;1.00
17992;DHT22;9121;50.926;5.340;2023-12-14T16:14:10;8.00;1.00